sensor_id;sensor_type;location;lat;lon;timestamp;pressure;altitude;pressure_sealevel;temperature;humidity
16194;BME280;8204;53.582;10.080;2023-06-04T10:30:42;102023.66;;;21.69;73.63
16194;BME280;8204;53.582;10.080;2023-06-04T10:33:08;102018.94;;;21.65;71.75
16194;BME280;8204;53.582;10.080;2023-06-04T10:35:35;102017.28;;;21.64;73.99
16194;BME280;8204;53.582;10.080;2023-06-04T10:38:05;102013.38;;;21.66;77.06
16194;BME280;8204;53.582;10.080;2023-06-04T10:40:32;102010.53;;;21.68;79.54
16194;BME280;8204;53.582;10.080;2023-06-04T10:43:04;102013.22;;;21.74;76.26
16194;BME280;8204;53.582;10.080;2023-06-04T10:45:30;102019.56;;;21.73;73.86
16194;BME280;8204;53.582;10.080;2023-06-04T10:48:07;102014.66;;;21.70;72.83
16194;BME280;8204;53.582;10.080;2023-06-04T10:50:33;102015.03;;;21.67;73.67
16194;BME280;8204;53.582;10.080;2023-06-04T10:52:59;102020.41;;;21.74;73.62
16194;BME280;8204;53.582;10.080;2023-06-04T10:55:28;102012.19;;;21.75;73.78
16194;BME280;8204;53.582;10.080;2023-06-04T10:57:58;102026.16;;;21.77;72.31
16194;BME280;8204;53.582;10.080;2023-06-04T11:00:38;102025.38;;;21.83;74.91
16194;BME280;8204;53.582;10.080;2023-06-04T11:03:05;102022.91;;;21.88;75.03
16194;BME280;8204;53.582;10.080;2023-06-04T11:05:35;102022.53;;;21.98;76.21
16194;BME280;8204;53.582;10.080;2023-06-04T11:08:01;102019.06;;;22.10;76.82
16194;BME280;8204;53.582;10.080;2023-06-04T11:10:38;102017.84;;;22.19;75.74
16194;BME280;8204;53.582;10.080;2023-06-04T11:13:05;102019.94;;;22.30;77.46
16194;BME280;8204;53.582;10.080;2023-06-04T11:15:43;102010.94;;;22.37;73.25
16194;BME280;8204;53.582;10.080;2023-06-04T11:18:16;102018.94;;;22.44;73.14
16194;BME280;8204;53.582;10.080;2023-06-04T11:20:44;102012.75;;;22.50;72.81
16194;BME280;8204;53.582;10.080;2023-06-04T11:23:11;102012.56;;;22.58;72.54
16194;BME280;8204;53.582;10.080;2023-06-04T11:25:37;102011.56;;;22.65;71.52
16194;BME280;8204;53.582;10.080;2023-06-04T11:28:02;102006.22;;;22.78;71.55
16194;BME280;8204;53.582;10.080;2023-06-04T11:30:28;102010.91;;;22.82;72.15
16194;BME280;8204;53.582;10.080;2023-06-04T11:33:03;102008.03;;;22.77;70.32
16194;BME280;8204;53.582;10.080;2023-06-04T11:35:30;102012.97;;;22.80;73.06
16194;BME280;8204;53.582;10.080;2023-06-04T11:37:57;102005.97;;;22.92;72.41
16194;BME280;8204;53.582;10.080;2023-06-04T11:40:23;102003.09;;;23.00;72.87
16194;BME280;8204;53.582;10.080;2023-06-04T11:42:49;102003.50;;;23.10;72.47
16194;BME280;8204;53.582;10.080;2023-06-04T11:45:16;102002.44;;;23.24;73.90
16194;BME280;8204;53.582;10.080;2023-06-04T11:47:47;101997.03;;;23.37;72.68
16194;BME280;8204;53.582;10.080;2023-06-04T11:50:13;101992.88;;;23.48;71.52
16194;BME280;8204;53.582;10.080;2023-06-04T11:52:38;102000.25;;;23.58;69.66
16194;BME280;8204;53.582;10.080;2023-06-04T11:55:08;101993.41;;;23.69;73.23
16194;BME280;8204;53.582;10.080;2023-06-04T11:57:34;101985.78;;;23.79;71.57
16194;BME280;8204;53.582;10.080;2023-06-04T11:59:59;101991.31;;;23.84;69.37
16194;BME280;8204;53.582;10.080;2023-06-04T12:02:25;101991.00;;;23.98;70.23
16194;BME280;8204;53.582;10.080;2023-06-04T12:04:51;101999.97;;;24.10;69.64
16194;BME280;8204;53.582;10.080;2023-06-04T12:07:20;101997.44;;;24.22;69.22
16194;BME280;8204;53.582;10.080;2023-06-04T12:09:49;101999.50;;;24.20;66.66
16194;BME280;8204;53.582;10.080;2023-06-04T12:12:15;102000.09;;;24.28;68.36
16194;BME280;8204;53.582;10.080;2023-06-04T12:14:46;101990.50;;;24.45;69.88
16194;BME280;8204;53.582;10.080;2023-06-04T12:17:11;101990.16;;;24.59;68.88
16194;BME280;8204;53.582;10.080;2023-06-04T12:19:50;101991.31;;;24.70;66.48
16194;BME280;8204;53.582;10.080;2023-06-04T12:22:16;101980.06;;;24.79;66.89
16194;BME280;8204;53.582;10.080;2023-06-04T12:24:53;101986.34;;;24.91;66.21
16194;BME280;8204;53.582;10.080;2023-06-04T12:27:19;101986.06;;;24.99;65.89
16194;BME280;8204;53.582;10.080;2023-06-04T12:30:04;101987.84;;;25.05;65.79
16194;BME280;8204;53.582;10.080;2023-06-04T12:32:36;101993.44;;;25.10;65.94
16194;BME280;8204;53.582;10.080;2023-06-04T12:35:02;101976.88;;;25.13;66.57
16194;BME280;8204;53.582;10.080;2023-06-04T12:37:27;101968.59;;;25.14;65.03
16194;BME280;8204;53.582;10.080;2023-06-04T12:39:54;101963.16;;;25.21;66.23
16194;BME280;8204;53.582;10.080;2023-06-04T12:42:20;101967.47;;;25.40;66.50
16194;BME280;8204;53.582;10.080;2023-06-04T12:44:45;101968.63;;;25.62;66.26
16194;BME280;8204;53.582;10.080;2023-06-04T12:47:11;101974.03;;;25.73;64.96
16194;BME280;8204;53.582;10.080;2023-06-04T12:49:37;101968.88;;;25.89;63.29
16194;BME280;8204;53.582;10.080;2023-06-04T12:52:03;101964.22;;;25.96;64.33
16194;BME280;8204;53.582;10.080;2023-06-04T12:54:29;101963.69;;;26.17;64.57
16194;BME280;8204;53.582;10.080;2023-06-04T12:56:56;101966.97;;;26.19;63.26
16194;BME280;8204;53.582;10.080;2023-06-04T12:59:25;101969.91;;;26.29;61.40
16194;BME280;8204;53.582;10.080;2023-06-04T13:01:51;101973.56;;;26.35;62.09
16194;BME280;8204;53.582;10.080;2023-06-04T13:04:16;101973.47;;;26.41;63.04
16194;BME280;8204;53.582;10.080;2023-06-04T13:06:42;101966.09;;;26.48;62.86
16194;BME280;8204;53.582;10.080;2023-06-04T13:09:07;101961.78;;;26.70;63.21
16194;BME280;8204;53.582;10.080;2023-06-04T13:11:40;101956.38;;;26.93;63.64
16194;BME280;8204;53.582;10.080;2023-06-04T13:14:07;101956.72;;;26.96;58.63
16194;BME280;8204;53.582;10.080;2023-06-04T13:16:32;101963.50;;;27.33;61.13
16194;BME280;8204;53.582;10.080;2023-06-04T13:18:58;101964.16;;;27.51;58.20
16194;BME280;8204;53.582;10.080;2023-06-04T13:21:23;101960.56;;;27.74;58.83
16194;BME280;8204;53.582;10.080;2023-06-04T13:23:49;101957.81;;;28.02;58.62
16194;BME280;8204;53.582;10.080;2023-06-04T13:26:16;101959.78;;;28.06;54.85
16194;BME280;8204;53.582;10.080;2023-06-04T13:28:41;101959.91;;;28.27;55.31
16194;BME280;8204;53.582;10.080;2023-06-04T13:31:07;101962.78;;;28.37;54.02
16194;BME280;8204;53.582;10.080;2023-06-04T13:33:32;101954.44;;;28.39;53.57
16194;BME280;8204;53.582;10.080;2023-06-04T13:36:00;101949.59;;;28.74;53.80
16194;BME280;8204;53.582;10.080;2023-06-04T13:38:26;101959.41;;;29.17;54.15
16194;BME280;8204;53.582;10.080;2023-06-04T13:40:52;101953.00;;;29.66;52.94
16194;BME280;8204;53.582;10.080;2023-06-04T13:43:17;101955.09;;;30.12;50.21
16194;BME280;8204;53.582;10.080;2023-06-04T13:45:43;101949.25;;;30.25;49.24
16194;BME280;8204;53.582;10.080;2023-06-04T13:48:10;101944.72;;;30.71;50.15
16194;BME280;8204;53.582;10.080;2023-06-04T13:50:35;101939.03;;;31.09;49.86
16194;BME280;8204;53.582;10.080;2023-06-04T13:53:01;101948.25;;;31.13;48.10
16194;BME280;8204;53.582;10.080;2023-06-04T13:55:26;101943.41;;;31.25;48.08
16194;BME280;8204;53.582;10.080;2023-06-04T13:57:51;101948.97;;;31.55;47.74
16194;BME280;8204;53.582;10.080;2023-06-04T14:00:17;101945.72;;;31.63;46.85
16194;BME280;8204;53.582;10.080;2023-06-04T14:02:42;101954.44;;;31.75;46.24
16194;BME280;8204;53.582;10.080;2023-06-04T14:05:08;101941.44;;;31.87;45.61
16194;BME280;8204;53.582;10.080;2023-06-04T14:07:34;101926.81;;;32.52;46.55
16194;BME280;8204;53.582;10.080;2023-06-04T14:10:00;101939.47;;;33.01;45.93
16194;BME280;8204;53.582;10.080;2023-06-04T14:12:25;101933.81;;;33.56;45.88
16194;BME280;8204;53.582;10.080;2023-06-04T14:14:51;101930.53;;;33.49;43.67
16194;BME280;8204;53.582;10.080;2023-06-04T14:17:16;101934.25;;;34.11;44.70
16194;BME280;8204;53.582;10.080;2023-06-04T14:19:42;101932.06;;;34.70;45.02
16194;BME280;8204;53.582;10.080;2023-06-04T14:22:07;101933.13;;;34.74;42.70
16194;BME280;8204;53.582;10.080;2023-06-04T14:24:57;101919.84;;;35.56;43.88
16194;BME280;8204;53.582;10.080;2023-06-04T14:27:23;101917.38;;;35.91;42.55
16194;BME280;8204;53.582;10.080;2023-06-04T14:29:48;101917.59;;;36.45;42.82
16194;BME280;8204;53.582;10.080;2023-06-04T14:32:14;101928.91;;;36.51;41.74
16194;BME280;8204;53.582;10.080;2023-06-04T14:34:39;101921.44;;;36.12;40.83
16194;BME280;8204;53.582;10.080;2023-06-04T14:37:04;101920.66;;;36.83;41.22
16194;BME280;8204;53.582;10.080;2023-06-04T14:39:30;101926.69;;;37.21;40.98
16194;BME280;8204;53.582;10.080;2023-06-04T14:41:56;101921.84;;;37.04;39.64
16194;BME280;8204;53.582;10.080;2023-06-04T14:44:21;101922.84;;;36.54;39.63
16194;BME280;8204;53.582;10.080;2023-06-04T14:46:48;101919.84;;;36.69;40.04
16194;BME280;8204;53.582;10.080;2023-06-04T14:49:13;101922.19;;;36.89;39.35
16194;BME280;8204;53.582;10.080;2023-06-04T14:51:38;101919.91;;;37.18;39.79
16194;BME280;8204;53.582;10.080;2023-06-04T14:54:04;101924.66;;;37.26;39.33
16194;BME280;8204;53.582;10.080;2023-06-04T14:56:30;101915.34;;;37.76;39.68
16194;BME280;8204;53.582;10.080;2023-06-04T14:58:56;101914.13;;;37.82;38.38
16194;BME280;8204;53.582;10.080;2023-06-04T15:01:21;101912.06;;;37.87;38.87
16194;BME280;8204;53.582;10.080;2023-06-04T15:03:49;101905.47;;;37.88;38.39
16194;BME280;8204;53.582;10.080;2023-06-04T15:06:16;101907.13;;;37.98;38.86
16194;BME280;8204;53.582;10.080;2023-06-04T15:08:42;101907.97;;;37.63;38.20
16194;BME280;8204;53.582;10.080;2023-06-04T15:11:07;101913.34;;;37.32;37.69
16194;BME280;8204;53.582;10.080;2023-06-04T15:13:32;101914.16;;;37.20;38.48
16194;BME280;8204;53.582;10.080;2023-06-04T15:16:00;101912.75;;;37.09;38.09
16194;BME280;8204;53.582;10.080;2023-06-04T15:18:26;101913.97;;;37.16;38.73
16194;BME280;8204;53.582;10.080;2023-06-04T15:20:51;101909.38;;;37.25;37.64
16194;BME280;8204;53.582;10.080;2023-06-04T15:23:17;101907.03;;;37.45;38.07
16194;BME280;8204;53.582;10.080;2023-06-04T15:25:43;101903.22;;;37.33;38.50
16194;BME280;8204;53.582;10.080;2023-06-04T15:28:09;101906.22;;;37.45;38.01
16194;BME280;8204;53.582;10.080;2023-06-04T15:30:34;101900.72;;;37.58;38.16
16194;BME280;8204;53.582;10.080;2023-06-04T15:32:59;101901.28;;;37.69;38.26
16194;BME280;8204;53.582;10.080;2023-06-04T15:35:26;101892.06;;;37.65;37.88
16194;BME280;8204;53.582;10.080;2023-06-04T15:37:52;101898.63;;;37.64;37.50
16194;BME280;8204;53.582;10.080;2023-06-04T15:40:17;101897.22;;;37.31;37.55
16194;BME280;8204;53.582;10.080;2023-06-04T15:42:43;101899.63;;;37.46;37.76
16194;BME280;8204;53.582;10.080;2023-06-04T15:45:08;101898.88;;;37.19;37.62
16194;BME280;8204;53.582;10.080;2023-06-04T15:47:35;101907.91;;;36.92;37.53
16194;BME280;8204;53.582;10.080;2023-06-04T15:50:00;101894.53;;;36.50;38.09
16194;BME280;8204;53.582;10.080;2023-06-04T15:52:25;101909.38;;;36.13;37.91
16194;BME280;8204;53.582;10.080;2023-06-04T15:54:51;101898.94;;;35.83;37.90
16194;BME280;8204;53.582;10.080;2023-06-04T15:57:17;101908.53;;;35.62;38.01
16194;BME280;8204;53.582;10.080;2023-06-04T16:00:07;101911.97;;;35.12;37.84
16194;BME280;8204;53.582;10.080;2023-06-04T16:02:32;101909.69;;;35.19;39.94
16194;BME280;8204;53.582;10.080;2023-06-04T16:04:58;101909.34;;;35.02;39.00
16194;BME280;8204;53.582;10.080;2023-06-04T16:07:23;101909.00;;;34.86;40.11
16194;BME280;8204;53.582;10.080;2023-06-04T16:09:49;101912.75;;;34.38;40.25
16194;BME280;8204;53.582;10.080;2023-06-04T16:12:14;101900.25;;;34.09;40.11
16194;BME280;8204;53.582;10.080;2023-06-04T16:14:40;101901.47;;;33.88;40.39
16194;BME280;8204;53.582;10.080;2023-06-04T16:17:05;101905.81;;;33.45;40.85
16194;BME280;8204;53.582;10.080;2023-06-04T16:19:31;101900.75;;;33.34;41.61
16194;BME280;8204;53.582;10.080;2023-06-04T16:21:57;101903.09;;;33.50;42.72
16194;BME280;8204;53.582;10.080;2023-06-04T16:24:23;101889.88;;;33.29;42.48
16194;BME280;8204;53.582;10.080;2023-06-04T16:26:49;101890.78;;;33.15;43.32
16194;BME280;8204;53.582;10.080;2023-06-04T16:29:14;101890.28;;;33.08;44.18
16194;BME280;8204;53.582;10.080;2023-06-04T16:31:39;101894.34;;;33.10;43.75
16194;BME280;8204;53.582;10.080;2023-06-04T16:34:05;101884.22;;;33.21;43.50
16194;BME280;8204;53.582;10.080;2023-06-04T16:36:31;101885.47;;;32.85;43.55
16194;BME280;8204;53.582;10.080;2023-06-04T16:38:56;101883.00;;;32.88;44.53
16194;BME280;8204;53.582;10.080;2023-06-04T16:41:22;101886.56;;;32.74;44.49
16194;BME280;8204;53.582;10.080;2023-06-04T16:43:47;101890.38;;;32.78;44.40
16194;BME280;8204;53.582;10.080;2023-06-04T16:46:12;101886.09;;;32.57;44.17
16194;BME280;8204;53.582;10.080;2023-06-04T16:48:38;101890.47;;;32.33;44.34
16194;BME280;8204;53.582;10.080;2023-06-04T16:51:04;101894.00;;;32.14;45.49
16194;BME280;8204;53.582;10.080;2023-06-04T16:53:29;101888.03;;;31.97;45.29
16194;BME280;8204;53.582;10.080;2023-06-04T16:55:55;101890.47;;;31.93;45.49
16194;BME280;8204;53.582;10.080;2023-06-04T16:58:21;101892.63;;;31.62;45.27
16194;BME280;8204;53.582;10.080;2023-06-04T17:00:46;101892.50;;;31.37;46.03
16194;BME280;8204;53.582;10.080;2023-06-04T17:03:13;101897.66;;;31.33;45.47
16194;BME280;8204;53.582;10.080;2023-06-04T17:05:39;101894.06;;;31.13;45.36
16194;BME280;8204;53.582;10.080;2023-06-04T17:08:05;101887.28;;;31.06;45.63
16194;BME280;8204;53.582;10.080;2023-06-04T17:10:30;101898.41;;;30.68;46.60
16194;BME280;8204;53.582;10.080;2023-06-04T17:13:00;101893.47;;;30.55;47.05
16194;BME280;8204;53.582;10.080;2023-06-04T17:15:27;101890.97;;;30.43;46.27
16194;BME280;8204;53.582;10.080;2023-06-04T17:17:53;101896.28;;;29.97;47.18
16194;BME280;8204;53.582;10.080;2023-06-04T17:20:28;101897.69;;;29.78;46.93
16194;BME280;8204;53.582;10.080;2023-06-04T17:22:53;101893.59;;;29.71;48.20
16194;BME280;8204;53.582;10.080;2023-06-04T17:25:19;101897.06;;;29.66;47.32
16194;BME280;8204;53.582;10.080;2023-06-04T17:27:44;101898.84;;;29.56;48.62
16194;BME280;8204;53.582;10.080;2023-06-04T17:30:11;101902.63;;;29.34;48.50
16194;BME280;8204;53.582;10.080;2023-06-04T17:32:36;101905.59;;;29.32;49.20
16194;BME280;8204;53.582;10.080;2023-06-04T17:35:02;101903.28;;;29.19;48.46
16194;BME280;8204;53.582;10.080;2023-06-04T17:37:27;101909.53;;;29.03;47.74
16194;BME280;8204;53.582;10.080;2023-06-04T17:39:52;101898.63;;;28.93;47.36
16194;BME280;8204;53.582;10.080;2023-06-04T17:42:19;101901.44;;;28.82;48.13
16194;BME280;8204;53.582;10.080;2023-06-04T17:44:45;101898.44;;;28.62;48.95
16194;BME280;8204;53.582;10.080;2023-06-04T17:47:10;101903.25;;;28.60;49.37
16194;BME280;8204;53.582;10.080;2023-06-04T17:49:36;101907.66;;;28.66;49.67
16194;BME280;8204;53.582;10.080;2023-06-04T17:52:01;101907.22;;;28.36;49.05
16194;BME280;8204;53.582;10.080;2023-06-04T17:54:27;101905.97;;;28.44;49.61
16194;BME280;8204;53.582;10.080;2023-06-04T17:56:52;101903.47;;;28.37;49.71
16194;BME280;8204;53.582;10.080;2023-06-04T17:59:17;101913.84;;;28.29;49.53
16194;BME280;8204;53.582;10.080;2023-06-04T18:01:43;101899.53;;;28.45;50.40
16194;BME280;8204;53.582;10.080;2023-06-04T18:04:08;101909.66;;;28.38;50.01
16194;BME280;8204;53.582;10.080;2023-06-04T18:06:34;101911.78;;;28.52;49.82
16194;BME280;8204;53.582;10.080;2023-06-04T18:08:59;101911.47;;;28.49;49.62
16194;BME280;8204;53.582;10.080;2023-06-04T18:11:25;101909.44;;;28.23;49.86
16194;BME280;8204;53.582;10.080;2023-06-04T18:13:50;101912.94;;;28.23;50.33
16194;BME280;8204;53.582;10.080;2023-06-04T18:16:16;101913.56;;;28.14;49.25
16194;BME280;8204;53.582;10.080;2023-06-04T18:18:42;101914.25;;;28.21;51.00
16194;BME280;8204;53.582;10.080;2023-06-04T18:21:08;101916.84;;;28.16;51.55
16194;BME280;8204;53.582;10.080;2023-06-04T18:23:33;101918.97;;;28.14;51.89
16194;BME280;8204;53.582;10.080;2023-06-04T18:25:59;101921.41;;;28.15;52.21
16194;BME280;8204;53.582;10.080;2023-06-04T18:28:24;101917.66;;;28.00;51.93
16194;BME280;8204;53.582;10.080;2023-06-04T18:30:50;101916.25;;;27.98;51.10
16194;BME280;8204;53.582;10.080;2023-06-04T18:33:15;101921.28;;;27.78;51.36
16194;BME280;8204;53.582;10.080;2023-06-04T18:35:41;101917.84;;;27.66;51.23
16194;BME280;8204;53.582;10.080;2023-06-04T18:38:06;101928.91;;;27.41;52.34
16194;BME280;8204;53.582;10.080;2023-06-04T18:40:32;101929.00;;;27.19;51.71
16194;BME280;8204;53.582;10.080;2023-06-04T18:42:57;101933.94;;;26.87;53.07
16194;BME280;8204;53.582;10.080;2023-06-04T18:45:23;101932.44;;;26.68;53.37
16194;BME280;8204;53.582;10.080;2023-06-04T18:47:48;101936.44;;;26.55;53.49
16194;BME280;8204;53.582;10.080;2023-06-04T18:50:14;101942.09;;;26.35;54.19
16194;BME280;8204;53.582;10.080;2023-06-04T18:52:39;101947.44;;;26.12;54.25
16194;BME280;8204;53.582;10.080;2023-06-04T18:55:08;101942.63;;;26.03;54.00
16194;BME280;8204;53.582;10.080;2023-06-04T18:57:35;101939.88;;;25.80;54.88
16194;BME280;8204;53.582;10.080;2023-06-04T19:00:02;101946.78;;;25.58;55.14
16194;BME280;8204;53.582;10.080;2023-06-04T19:02:34;101944.81;;;25.36;55.16
16194;BME280;8204;53.582;10.080;2023-06-04T19:04:59;101948.84;;;25.09;55.64
16194;BME280;8204;53.582;10.080;2023-06-04T19:07:25;101945.72;;;24.88;57.01
16194;BME280;8204;53.582;10.080;2023-06-04T19:09:50;101945.44;;;24.78;56.72
16194;BME280;8204;53.582;10.080;2023-06-04T19:12:15;101950.56;;;24.61;57.14
16194;BME280;8204;53.582;10.080;2023-06-04T19:14:41;101952.78;;;24.40;58.00
16194;BME280;8204;53.582;10.080;2023-06-04T19:17:07;101956.00;;;24.24;59.41
16194;BME280;8204;53.582;10.080;2023-06-04T19:19:32;101955.44;;;24.16;60.95
16194;BME280;8204;53.582;10.080;2023-06-04T19:21:57;101961.69;;;24.10;61.31
16194;BME280;8204;53.582;10.080;2023-06-04T19:24:23;101954.75;;;23.96;61.32
16194;BME280;8204;53.582;10.080;2023-06-04T19:26:49;101963.44;;;23.91;60.85
16194;BME280;8204;53.582;10.080;2023-06-04T19:29:16;101963.97;;;23.75;62.11
16194;BME280;8204;53.582;10.080;2023-06-04T19:31:42;101972.22;;;23.61;63.00
16194;BME280;8204;53.582;10.080;2023-06-04T19:34:07;101980.53;;;23.47;64.99
16194;BME280;8204;53.582;10.080;2023-06-04T19:36:33;101980.19;;;23.37;66.67
16194;BME280;8204;53.582;10.080;2023-06-04T19:38:59;101981.22;;;23.29;66.41
16194;BME280;8204;53.582;10.080;2023-06-04T19:41:27;101983.53;;;23.19;67.81
16194;BME280;8204;53.582;10.080;2023-06-04T19:43:53;101980.66;;;23.14;70.46
16194;BME280;8204;53.582;10.080;2023-06-04T19:46:19;101978.41;;;23.11;73.33
16194;BME280;8204;53.582;10.080;2023-06-04T19:48:44;101988.88;;;23.00;74.34
16194;BME280;8204;53.582;10.080;2023-06-04T19:51:10;101984.16;;;22.82;77.38
16194;BME280;8204;53.582;10.080;2023-06-04T19:53:38;101982.75;;;22.80;80.94
16194;BME280;8204;53.582;10.080;2023-06-04T19:56:04;101988.09;;;22.74;83.34
16194;BME280;8204;53.582;10.080;2023-06-04T19:58:29;101989.16;;;22.60;85.87
16194;BME280;8204;53.582;10.080;2023-06-04T20:00:55;101993.84;;;22.58;87.02
16194;BME280;8204;53.582;10.080;2023-06-04T20:03:20;101992.00;;;22.52;90.40
16194;BME280;8204;53.582;10.080;2023-06-04T20:05:46;101994.69;;;22.52;92.67
16194;BME280;8204;53.582;10.080;2023-06-04T20:08:11;102002.31;;;22.42;93.35
16194;BME280;8204;53.582;10.080;2023-06-04T20:10:37;101999.00;;;22.40;95.20
16194;BME280;8204;53.582;10.080;2023-06-04T20:13:02;102002.88;;;22.31;97.08
16194;BME280;8204;53.582;10.080;2023-06-04T20:15:27;102003.09;;;22.23;98.40
16194;BME280;8204;53.582;10.080;2023-06-04T20:17:53;102005.13;;;22.21;99.07
16194;BME280;8204;53.582;10.080;2023-06-04T20:20:19;102003.66;;;22.12;100.00
16194;BME280;8204;53.582;10.080;2023-06-04T20:22:44;102007.56;;;22.03;100.00
16194;BME280;8204;53.582;10.080;2023-06-04T20:25:10;102005.69;;;21.97;100.00
16194;BME280;8204;53.582;10.080;2023-06-04T20:27:35;102011.81;;;21.91;100.00
16194;BME280;8204;53.582;10.080;2023-06-04T20:30:01;102017.75;;;21.80;100.00
16194;BME280;8204;53.582;10.080;2023-06-04T20:32:26;102016.69;;;21.68;100.00
16194;BME280;8204;53.582;10.080;2023-06-04T20:34:52;102013.75;;;21.57;100.00
16194;BME280;8204;53.582;10.080;2023-06-04T20:37:17;102016.13;;;21.45;100.00
16194;BME280;8204;53.582;10.080;2023-06-04T20:39:42;102015.31;;;21.38;100.00
16194;BME280;8204;53.582;10.080;2023-06-04T20:42:12;102022.59;;;21.24;100.00
16194;BME280;8204;53.582;10.080;2023-06-04T20:44:38;102025.84;;;21.19;100.00
16194;BME280;8204;53.582;10.080;2023-06-04T20:47:04;102026.41;;;21.15;100.00
16194;BME280;8204;53.582;10.080;2023-06-04T20:49:30;102025.34;;;21.09;100.00
16194;BME280;8204;53.582;10.080;2023-06-04T20:51:59;102027.13;;;20.96;100.00
16194;BME280;8204;53.582;10.080;2023-06-04T20:54:24;102033.47;;;20.95;100.00
16194;BME280;8204;53.582;10.080;2023-06-04T20:56:50;102034.25;;;20.89;100.00
16194;BME280;8204;53.582;10.080;2023-06-04T20:59:15;102035.47;;;20.86;100.00
16194;BME280;8204;53.582;10.080;2023-06-04T21:01:41;102038.94;;;20.87;100.00
16194;BME280;8204;53.582;10.080;2023-06-04T21:04:06;102039.97;;;20.86;100.00
16194;BME280;8204;53.582;10.080;2023-06-04T21:06:33;102039.53;;;20.82;100.00
16194;BME280;8204;53.582;10.080;2023-06-04T21:08:59;102033.13;;;20.77;100.00
16194;BME280;8204;53.582;10.080;2023-06-04T21:11:24;102036.97;;;20.74;100.00
16194;BME280;8204;53.582;10.080;2023-06-04T21:13:49;102040.47;;;20.75;100.00
16194;BME280;8204;53.582;10.080;2023-06-04T21:16:15;102038.81;;;20.74;100.00
16194;BME280;8204;53.582;10.080;2023-06-04T21:18:41;102038.00;;;20.73;100.00
16194;BME280;8204;53.582;10.080;2023-06-04T21:21:06;102037.19;;;20.73;100.00
16194;BME280;8204;53.582;10.080;2023-06-04T21:23:32;102039.00;;;20.72;100.00
16194;BME280;8204;53.582;10.080;2023-06-04T21:25:57;102046.34;;;20.70;100.00
16194;BME280;8204;53.582;10.080;2023-06-04T21:28:22;102041.22;;;20.69;100.00
16194;BME280;8204;53.582;10.080;2023-06-04T21:30:48;102046.75;;;20.67;100.00
16194;BME280;8204;53.582;10.080;2023-06-04T21:33:13;102047.13;;;20.64;100.00
16194;BME280;8204;53.582;10.080;2023-06-04T21:35:39;102043.00;;;20.62;100.00
16194;BME280;8204;53.582;10.080;2023-06-04T21:38:04;102045.06;;;20.60;100.00
16194;BME280;8204;53.582;10.080;2023-06-04T21:40:30;102044.63;;;20.56;100.00
16194;BME280;8204;53.582;10.080;2023-06-04T21:42:56;102060.16;;;20.53;100.00
16194;BME280;8204;53.582;10.080;2023-06-04T21:45:21;102047.22;;;20.50;100.00
16194;BME280;8204;53.582;10.080;2023-06-04T21:47:47;102048.63;;;20.46;100.00
16194;BME280;8204;53.582;10.080;2023-06-04T21:50:12;102052.66;;;20.42;100.00
16194;BME280;8204;53.582;10.080;2023-06-04T21:52:38;102053.06;;;20.39;100.00
16194;BME280;8204;53.582;10.080;2023-06-04T21:55:05;102053.81;;;20.33;100.00
16194;BME280;8204;53.582;10.080;2023-06-04T21:57:30;102052.72;;;20.28;100.00
16194;BME280;8204;53.582;10.080;2023-06-04T21:59:56;102049.41;;;20.26;100.00
16194;BME280;8204;53.582;10.080;2023-06-04T22:02:21;102051.59;;;20.16;100.00
16194;BME280;8204;53.582;10.080;2023-06-04T22:04:47;102056.47;;;20.12;100.00
16194;BME280;8204;53.582;10.080;2023-06-04T22:07:13;102052.34;;;20.10;100.00
16194;BME280;8204;53.582;10.080;2023-06-04T22:09:38;102061.53;;;20.07;100.00
16194;BME280;8204;53.582;10.080;2023-06-04T22:12:04;102051.88;;;20.06;100.00
16194;BME280;8204;53.582;10.080;2023-06-04T22:14:31;102054.28;;;20.01;100.00
16194;BME280;8204;53.582;10.080;2023-06-04T22:16:57;102059.97;;;19.98;100.00
16194;BME280;8204;53.582;10.080;2023-06-04T22:19:22;102061.19;;;19.96;100.00
16194;BME280;8204;53.582;10.080;2023-06-04T22:21:48;102057.06;;;19.93;100.00
16194;BME280;8204;53.582;10.080;2023-06-04T22:24:13;102059.84;;;19.92;100.00
16194;BME280;8204;53.582;10.080;2023-06-04T22:26:38;102056.94;;;19.87;100.00
16194;BME280;8204;53.582;10.080;2023-06-04T22:29:04;102061.00;;;19.83;100.00
16194;BME280;8204;53.582;10.080;2023-06-04T22:31:30;102056.22;;;19.78;100.00
16194;BME280;8204;53.582;10.080;2023-06-04T22:33:55;102056.59;;;19.76;100.00
16194;BME280;8204;53.582;10.080;2023-06-04T22:36:21;102060.63;;;19.72;100.00
16194;BME280;8204;53.582;10.080;2023-06-04T22:38:46;102059.38;;;19.68;100.00
16194;BME280;8204;53.582;10.080;2023-06-04T22:41:11;102062.38;;;19.65;100.00
16194;BME280;8204;53.582;10.080;2023-06-04T22:43:37;102052.50;;;19.59;100.00
16194;BME280;8204;53.582;10.080;2023-06-04T22:46:02;102057.16;;;19.57;100.00
16194;BME280;8204;53.582;10.080;2023-06-04T22:48:27;102057.91;;;19.51;100.00
16194;BME280;8204;53.582;10.080;2023-06-04T22:50:53;102054.97;;;19.46;100.00
16194;BME280;8204;53.582;10.080;2023-06-04T22:53:22;102061.69;;;19.42;100.00
16194;BME280;8204;53.582;10.080;2023-06-04T22:55:48;102063.03;;;19.38;100.00
16194;BME280;8204;53.582;10.080;2023-06-04T22:58:13;102061.78;;;19.34;100.00
16194;BME280;8204;53.582;10.080;2023-06-04T23:00:39;102061.13;;;19.32;100.00
16194;BME280;8204;53.582;10.080;2023-06-04T23:03:07;102062.50;;;19.28;100.00
16194;BME280;8204;53.582;10.080;2023-06-04T23:05:32;102054.88;;;19.25;100.00
16194;BME280;8204;53.582;10.080;2023-06-04T23:07:57;102054.59;;;19.20;100.00
16194;BME280;8204;53.582;10.080;2023-06-04T23:10:23;102051.69;;;19.15;100.00
16194;BME280;8204;53.582;10.080;2023-06-04T23:12:48;102058.34;;;19.11;100.00